createdAt,value
2019-05-01T00:01:31.182Z,99.90
2019-05-01T00:04:34.916Z,99.90
2019-05-01T00:07:09.894Z,99.90
2019-05-01T00:09:39.396Z,99.90
2019-05-01T00:12:08.815Z,99.90
2019-05-01T00:14:38.404Z,99.90
2019-05-01T00:17:07.828Z,99.90
2019-05-01T00:19:37.339Z,99.90
2019-05-01T00:22:06.743Z,99.90
2019-05-01T00:24:36.103Z,99.90
2019-05-01T00:27:05.535Z,99.90
2019-05-01T00:29:35.888Z,99.90
2019-05-01T00:32:05.237Z,99.90
2019-05-01T00:34:34.676Z,99.90
2019-05-01T00:40:03.709Z,99.90
2019-05-01T00:42:33.155Z,99.90
2019-05-01T00:45:02.630Z,99.90
2019-05-01T00:47:32.058Z,99.90
2019-05-01T00:50:01.476Z,99.90
2019-05-01T00:52:34.053Z,99.90
2019-05-01T00:55:21.383Z,99.90
2019-05-01T00:58:00.329Z,99.90
2019-05-01T01:00:43.289Z,99.90
2019-05-01T01:03:11.603Z,99.90
2019-05-01T01:05:41.161Z,99.90
2019-05-01T01:08:10.753Z,99.90
2019-05-01T01:10:40.209Z,99.90
2019-05-01T01:13:09.568Z,99.90
2019-05-01T01:15:39.031Z,99.90
2019-05-01T01:18:08.454Z,99.90
2019-05-01T01:20:37.876Z,99.90
2019-05-01T01:23:07.352Z,99.90
2019-05-01T01:25:36.906Z,99.90
2019-05-01T01:28:06.485Z,99.90
2019-05-01T01:30:35.896Z,99.90
2019-05-01T01:33:05.451Z,99.90
2019-05-01T01:35:34.882Z,99.90
2019-05-01T01:38:04.451Z,99.90
2019-05-01T01:40:34.993Z,99.90
2019-05-01T01:43:22.610Z,99.90
2019-05-01T01:45:53.482Z,99.90
2019-05-01T01:48:23.156Z,99.90
2019-05-01T01:50:52.733Z,99.90
2019-05-01T01:53:23.175Z,99.90
2019-05-01T01:55:53.505Z,99.90
2019-05-01T01:58:23.551Z,99.90
2019-05-01T02:01:15.677Z,99.90
2019-05-01T02:03:48.814Z,99.90
2019-05-01T02:06:18.480Z,99.90
2019-05-01T02:08:56.337Z,99.90
2019-05-01T02:11:19.152Z,99.90
2019-05-01T02:13:48.497Z,99.90
2019-05-01T02:16:17.924Z,99.90
2019-05-01T02:18:48.280Z,99.90
2019-05-01T02:21:17.703Z,99.90
2019-05-01T02:23:48.929Z,99.90
2019-05-01T02:26:20.357Z,99.90
2019-05-01T02:28:55.335Z,99.90
2019-05-01T02:31:33.592Z,99.90
2019-05-01T02:34:04.567Z,99.90
2019-05-01T02:36:37.268Z,99.90
2019-05-01T02:39:09.493Z,99.90
2019-05-01T02:41:42.410Z,99.90
2019-05-01T02:44:20.444Z,99.90
2019-05-01T02:46:51.893Z,99.90
2019-05-01T02:49:36.330Z,99.90
2019-05-01T02:52:08.433Z,99.90
2019-05-01T02:54:39.039Z,99.90
2019-05-01T02:57:12.475Z,99.90
2019-05-01T02:59:48.591Z,99.90
2019-05-01T03:02:19.418Z,99.90
2019-05-01T03:04:49.114Z,99.90
2019-05-01T03:07:19.567Z,99.90
2019-05-01T03:09:49.388Z,99.90
2019-05-01T03:12:21.829Z,99.90
2019-05-01T03:14:52.780Z,99.90
2019-05-01T03:17:41.214Z,99.90
2019-05-01T03:20:31.081Z,99.90
2019-05-01T03:23:32.854Z,99.90
2019-05-01T03:29:09.283Z,99.90
2019-05-01T03:31:38.697Z,99.90
2019-05-01T03:34:08.017Z,99.90
2019-05-01T03:36:37.600Z,99.90
2019-05-01T03:39:07.056Z,99.90
2019-05-01T03:41:37.698Z,99.90
2019-05-01T03:44:07.113Z,99.90
2019-05-01T03:46:37.294Z,99.90
2019-05-01T03:49:07.005Z,99.90
2019-05-01T03:51:36.837Z,99.90
2019-05-01T03:54:06.271Z,99.90
2019-05-01T03:56:35.675Z,99.90
2019-05-01T03:59:05.696Z,99.90
2019-05-01T04:01:54.001Z,99.90
2019-05-01T04:04:26.415Z,99.90
2019-05-01T04:06:55.878Z,99.90
2019-05-01T04:09:25.470Z,99.90
2019-05-01T04:11:55.155Z,99.90
2019-05-01T04:14:24.690Z,99.90
2019-05-01T04:17:01.171Z,99.90
2019-05-01T04:19:51.324Z,99.90
2019-05-01T04:22:20.819Z,99.90
2019-05-01T04:24:50.893Z,99.90
2019-05-01T04:27:26.029Z,99.90
2019-05-01T04:30:04.299Z,99.90
2019-05-01T04:32:50.825Z,99.90
2019-05-01T04:35:26.389Z,99.90
2019-05-01T04:37:58.241Z,99.90
2019-05-01T04:40:28.076Z,99.90
2019-05-01T04:42:58.050Z,99.90
2019-05-01T04:45:28.105Z,99.90
2019-05-01T04:47:57.614Z,99.90
2019-05-01T04:50:27.060Z,99.90
2019-05-01T04:52:56.457Z,99.90
2019-05-01T04:55:25.970Z,99.90
2019-05-01T04:57:55.833Z,99.90
2019-05-01T05:00:25.843Z,99.90
2019-05-01T05:03:05.224Z,99.90
2019-05-01T05:05:34.934Z,99.90
2019-05-01T05:08:04.765Z,99.90
2019-05-01T05:10:35.224Z,99.90
2019-05-01T05:13:26.729Z,99.90
2019-05-01T05:16:18.164Z,99.90
2019-05-01T05:18:47.955Z,99.90
2019-05-01T05:21:17.555Z,99.90
2019-05-01T05:23:48.199Z,99.90
2019-05-01T05:26:17.769Z,99.90
2019-05-01T05:28:48.685Z,99.90
2019-05-01T05:31:23.002Z,99.90
2019-05-01T05:33:54.046Z,99.90
2019-05-01T05:36:25.743Z,99.90
2019-05-01T05:39:04.115Z,99.90
2019-05-01T05:41:35.142Z,99.90
2019-05-01T05:44:04.921Z,99.90
2019-05-01T05:46:34.502Z,99.90
2019-05-01T05:49:04.172Z,99.90
2019-05-01T05:51:42.262Z,99.90
2019-05-01T05:54:48.694Z,99.90
2019-05-01T05:57:25.784Z,99.90
2019-05-01T06:00:01.186Z,99.90
2019-05-01T06:02:43.267Z,99.90
2019-05-01T06:05:26.716Z,99.90
2019-05-01T06:08:13.810Z,99.90
2019-05-01T06:11:03.496Z,99.90
2019-05-01T06:13:56.944Z,99.90
2019-05-01T06:16:41.948Z,99.90
2019-05-01T06:19:21.767Z,99.90
2019-05-01T06:22:21.275Z,99.90
2019-05-01T06:24:55.845Z,99.90
2019-05-01T06:27:25.962Z,99.90
2019-05-01T06:29:55.818Z,99.90
2019-05-01T06:32:28.792Z,99.90
2019-05-01T06:34:58.443Z,99.90
2019-05-01T06:38:00.651Z,99.90
2019-05-01T06:40:45.751Z,99.90
2019-05-01T06:43:36.418Z,99.90
2019-05-01T06:46:27.385Z,99.90
2019-05-01T06:49:02.183Z,99.90
2019-05-01T06:51:42.060Z,99.90
2019-05-01T06:54:16.204Z,99.90
2019-05-01T06:56:45.377Z,99.90
2019-05-01T06:59:17.073Z,99.90
2019-05-01T07:01:48.448Z,99.90
2019-05-01T07:04:21.309Z,99.90
2019-05-01T07:06:52.073Z,99.90
2019-05-01T07:09:28.028Z,99.90
2019-05-01T07:11:55.456Z,99.90
2019-05-01T07:14:25.637Z,99.90
2019-05-01T07:16:55.709Z,99.90
2019-05-01T07:19:42.831Z,99.90
2019-05-01T07:22:12.743Z,99.90
2019-05-01T07:24:43.272Z,99.90
2019-05-01T07:27:12.804Z,99.90
2019-05-01T07:29:45.036Z,99.90
2019-05-01T07:32:15.145Z,99.90
2019-05-01T07:34:44.565Z,99.90
2019-05-01T07:37:14.642Z,99.90
2019-05-01T07:39:49.363Z,99.90
2019-05-01T07:42:34.172Z,99.90
2019-05-01T07:45:26.373Z,99.90
2019-05-01T07:47:54.915Z,99.90
2019-05-01T07:53:59.062Z,99.90
2019-05-01T07:56:28.113Z,99.90
2019-05-01T07:58:58.088Z,99.90
2019-05-01T08:01:50.031Z,99.90
2019-05-01T08:04:35.333Z,99.90
2019-05-01T08:06:52.067Z,99.90
2019-05-01T08:09:22.878Z,99.90
2019-05-01T08:11:53.678Z,99.90
2019-05-01T08:14:25.741Z,99.90
2019-05-01T08:16:55.696Z,99.90
2019-05-01T08:19:30.572Z,99.90
2019-05-01T08:22:07.901Z,99.90
2019-05-01T08:27:56.335Z,99.90
2019-05-01T08:30:33.066Z,99.90
2019-05-01T08:36:11.698Z,99.90
2019-05-01T08:38:41.997Z,99.90
2019-05-01T08:41:11.435Z,99.90
2019-05-01T08:47:01.994Z,99.90
2019-05-01T08:49:57.877Z,99.90
2019-05-01T08:52:27.966Z,99.90
2019-05-01T08:55:04.168Z,99.90
2019-05-01T08:57:34.527Z,99.90
2019-05-01T09:00:02.538Z,99.90
2019-05-01T09:02:36.766Z,99.90
2019-05-01T09:05:26.985Z,99.90
2019-05-01T09:07:40.141Z,99.90
2019-05-01T09:10:09.705Z,99.90
2019-05-01T09:12:42.622Z,99.90
2019-05-01T09:15:12.610Z,99.90
2019-05-01T09:17:41.868Z,99.90
2019-05-01T09:20:16.443Z,99.90
2019-05-01T09:22:45.797Z,99.90
2019-05-01T09:25:17.945Z,99.90
2019-05-01T09:27:59.489Z,99.90
2019-05-01T09:30:32.385Z,99.90
2019-05-01T09:33:01.950Z,99.90
2019-05-01T09:35:31.655Z,99.90
2019-05-01T09:38:01.193Z,99.90
2019-05-01T09:40:30.674Z,99.90
2019-05-01T09:43:01.207Z,99.90
2019-05-01T09:51:54.010Z,99.90
2019-05-01T09:54:29.294Z,99.90
2019-05-01T09:56:58.746Z,99.90
2019-05-01T10:02:37.711Z,99.90
2019-05-01T10:05:08.685Z,99.90
2019-05-01T10:10:24.867Z,99.90
2019-05-01T10:12:55.786Z,99.90
2019-05-01T10:15:25.263Z,99.90
2019-05-01T10:20:54.011Z,99.90
2019-05-01T10:23:23.467Z,99.90
2019-05-01T10:28:50.018Z,99.90
2019-05-01T10:31:46.737Z,99.90
2019-05-01T10:37:02.926Z,99.90
2019-05-01T10:39:32.353Z,99.90
2019-05-01T10:42:01.820Z,99.90
2019-05-01T10:44:31.337Z,99.90
2019-05-01T10:47:02.131Z,99.90
2019-05-01T10:49:31.669Z,99.90
2019-05-01T10:52:13.414Z,99.90
2019-05-01T10:54:32.244Z,99.90
2019-05-01T10:57:03.447Z,99.90
2019-05-01T11:08:17.824Z,99.90
2019-05-01T11:10:47.840Z,99.90
2019-05-01T11:13:17.352Z,99.90
2019-05-01T11:15:46.708Z,99.90
2019-05-01T11:18:16.130Z,99.90
2019-05-01T11:20:45.585Z,99.90
2019-05-01T11:23:15.166Z,99.90
2019-05-01T11:28:30.359Z,99.90
2019-05-01T11:34:48.291Z,99.90
2019-05-01T11:40:31.468Z,99.90
2019-05-01T11:43:02.706Z,99.90
2019-05-01T11:45:32.158Z,99.90
2019-05-01T11:48:04.337Z,99.90
2019-05-01T11:50:33.814Z,99.90
2019-05-01T11:53:27.740Z,99.90
2019-05-01T11:55:57.404Z,99.90
2019-05-01T11:58:29.630Z,99.90
2019-05-01T12:01:00.623Z,99.90
2019-05-01T12:03:30.018Z,99.90
2019-05-01T12:06:00.036Z,99.90
2019-05-01T12:08:29.484Z,99.90
2019-05-01T12:10:59.611Z,99.90
2019-05-01T12:13:29.243Z,99.90
2019-05-01T12:16:05.528Z,99.90
2019-05-01T12:18:35.095Z,99.90
2019-05-01T12:21:04.519Z,99.90
2019-05-01T12:23:35.467Z,99.90
2019-05-01T12:26:04.942Z,99.90
2019-05-01T12:28:34.965Z,99.90
2019-05-01T12:31:04.839Z,99.90
2019-05-01T12:33:35.552Z,99.90
2019-05-01T12:36:09.070Z,99.90
2019-05-01T12:38:38.557Z,99.90
2019-05-01T12:41:35.949Z,99.90
2019-05-01T12:44:05.382Z,99.90
2019-05-01T12:46:49.875Z,99.90
2019-05-01T12:49:23.225Z,99.90
2019-05-01T12:51:55.296Z,99.90
2019-05-01T13:00:51.915Z,99.90
2019-05-01T13:03:21.487Z,99.90
2019-05-01T13:05:51.152Z,99.90
2019-05-01T13:08:31.067Z,99.90
2019-05-01T13:11:21.815Z,99.90
2019-05-01T13:16:55.486Z,99.90
2019-05-01T13:19:24.912Z,99.90
2019-05-01T13:21:54.395Z,99.90
2019-05-01T13:24:23.784Z,99.90
2019-05-01T13:27:21.672Z,99.90
2019-05-01T13:30:02.435Z,99.90
2019-05-01T13:32:51.738Z,99.90
2019-05-01T13:35:21.250Z,99.90
2019-05-01T13:37:54.500Z,99.90
2019-05-01T13:40:25.852Z,99.90
2019-05-01T13:42:58.775Z,99.90
2019-05-01T13:45:30.015Z,99.90
2019-05-01T13:50:47.731Z,99.90
2019-05-01T13:53:17.857Z,99.90
2019-05-01T13:55:49.233Z,99.90
2019-05-01T13:58:23.283Z,99.90
2019-05-01T14:00:52.919Z,99.90
2019-05-01T14:03:22.505Z,99.90
2019-05-01T14:05:52.111Z,99.90
2019-05-01T14:08:21.651Z,99.90
2019-05-01T14:10:53.483Z,99.90
2019-05-01T14:13:49.585Z,99.90
2019-05-01T14:16:19.085Z,99.90
2019-05-01T14:18:49.969Z,99.90
2019-05-01T14:21:38.338Z,99.90
2019-05-01T14:24:25.880Z,99.90
2019-05-01T14:26:55.378Z,99.90
2019-05-01T14:29:50.037Z,99.90
2019-05-01T14:32:19.541Z,99.90
2019-05-01T14:37:37.481Z,99.90
2019-05-01T14:40:08.834Z,99.90
2019-05-01T14:42:39.761Z,99.90
2019-05-01T14:45:10.373Z,99.90
2019-05-01T14:47:39.823Z,99.90
2019-05-01T14:50:12.843Z,99.90
2019-05-01T14:52:43.438Z,99.90
2019-05-01T14:55:13.613Z,99.90
2019-05-01T14:57:43.155Z,99.90
2019-05-01T15:00:13.579Z,99.90
2019-05-01T15:02:46.160Z,99.90
2019-05-01T15:05:43.014Z,99.90
2019-05-01T15:08:12.752Z,99.80
2019-05-01T15:10:42.330Z,99.60
2019-05-01T15:13:25.153Z,99.90
2019-05-01T15:16:13.513Z,99.90
2019-05-01T15:19:07.818Z,99.90
2019-05-01T15:21:38.767Z,99.90
2019-05-01T15:24:08.407Z,99.80
2019-05-01T15:26:38.037Z,99.70
2019-05-01T15:29:07.581Z,99.70
2019-05-01T15:31:37.067Z,99.90
2019-05-01T15:34:06.571Z,99.50
2019-05-01T15:36:38.625Z,99.90
2019-05-01T15:39:11.989Z,99.70
2019-05-01T15:42:12.563Z,99.60
2019-05-01T15:44:42.571Z,99.40
2019-05-01T15:47:12.079Z,99.30
2019-05-01T15:49:41.586Z,98.40
2019-05-01T15:52:11.130Z,98.70
2019-05-01T15:54:40.738Z,98.20
2019-05-01T15:57:13.007Z,98.00
2019-05-01T15:59:42.589Z,97.40
2019-05-01T16:02:12.114Z,97.20
2019-05-01T16:04:41.698Z,97.10
2019-05-01T16:07:11.154Z,97.60
2019-05-01T16:09:40.542Z,98.00
2019-05-01T16:12:17.751Z,98.40
2019-05-01T16:14:49.111Z,98.80
2019-05-01T16:17:18.618Z,99.80
2019-05-01T16:19:48.114Z,99.70
2019-05-01T16:25:05.838Z,99.90
2019-05-01T16:27:35.335Z,99.90
2019-05-01T16:30:05.294Z,99.90
2019-05-01T16:32:34.796Z,99.90
2019-05-01T16:35:04.293Z,99.90
2019-05-01T16:37:33.848Z,99.90
2019-05-01T16:40:16.712Z,99.90
2019-05-01T16:42:46.350Z,99.90
2019-05-01T16:45:17.726Z,99.90
2019-05-01T16:47:49.549Z,99.90
2019-05-01T16:53:28.565Z,99.90
2019-05-01T16:55:59.938Z,99.90
2019-05-01T16:58:30.146Z,99.90
2019-05-01T17:01:12.951Z,99.90
2019-05-01T17:07:24.814Z,99.90
2019-05-01T17:10:31.623Z,99.90
2019-05-01T17:13:01.239Z,99.90
2019-05-01T17:15:37.862Z,99.90
2019-05-01T17:18:10.154Z,99.90
2019-05-01T17:20:39.771Z,99.90
2019-05-01T17:23:09.579Z,99.90
2019-05-01T17:25:41.490Z,99.90
2019-05-01T17:28:14.210Z,99.90
2019-05-01T17:30:50.583Z,99.90
2019-05-01T17:36:18.995Z,99.90
2019-05-01T17:38:49.938Z,99.90
2019-05-01T17:44:25.386Z,99.90
2019-05-01T17:46:51.589Z,99.90
2019-05-01T17:52:16.953Z,99.90
2019-05-01T17:54:46.606Z,99.90
2019-05-01T17:57:16.317Z,99.90
2019-05-01T17:59:47.408Z,99.90
2019-05-01T18:02:38.913Z,99.90
2019-05-01T18:05:20.162Z,99.90
2019-05-01T18:07:49.698Z,99.90
2019-05-01T18:10:19.184Z,99.90
2019-05-01T18:12:48.677Z,99.90
2019-05-01T18:15:18.368Z,99.90
2019-05-01T18:17:47.913Z,99.90
2019-05-01T18:20:17.477Z,99.90
2019-05-01T18:23:02.064Z,99.90
2019-05-01T18:25:49.492Z,99.90
2019-05-01T18:28:41.011Z,99.90
2019-05-01T18:31:15.771Z,99.90
2019-05-01T18:33:46.668Z,99.90
2019-05-01T18:36:19.921Z,99.90
2019-05-01T18:38:58.136Z,99.90
2019-05-01T18:41:52.175Z,99.90
2019-05-01T18:47:22.607Z,99.90
2019-05-01T18:49:53.314Z,99.90
2019-05-01T18:52:24.300Z,99.90
2019-05-01T18:54:56.642Z,99.90
2019-05-01T18:57:26.192Z,99.90
2019-05-01T18:59:57.229Z,99.90
2019-05-01T19:02:30.917Z,99.90
2019-05-01T19:05:04.249Z,99.90
2019-05-01T19:07:36.935Z,99.90
2019-05-01T19:10:06.881Z,99.90
2019-05-01T19:12:45.209Z,99.90
2019-05-01T19:15:14.960Z,99.90
2019-05-01T19:17:45.614Z,99.90
2019-05-01T19:20:17.633Z,99.90
2019-05-01T19:22:49.966Z,99.90
2019-05-01T19:25:28.658Z,99.90
2019-05-01T19:27:58.241Z,99.90
2019-05-01T19:30:31.298Z,99.90
2019-05-01T19:33:05.492Z,99.90
2019-05-01T19:35:35.628Z,99.90
2019-05-01T19:38:09.300Z,99.90
2019-05-01T19:40:39.072Z,99.90
2019-05-01T19:43:08.614Z,99.90
2019-05-01T19:48:38.553Z,99.90
2019-05-01T19:51:11.637Z,99.90
2019-05-01T19:53:41.368Z,99.90
2019-05-01T19:56:16.668Z,99.90
2019-05-01T20:01:47.814Z,99.90
2019-05-01T20:04:16.587Z,99.90
2019-05-01T20:06:48.603Z,99.90
2019-05-01T20:09:19.000Z,99.90
2019-05-01T20:11:48.592Z,99.90
2019-05-01T20:14:19.384Z,99.90
2019-05-01T20:16:51.016Z,99.90
2019-05-01T20:19:23.462Z,99.90
2019-05-01T20:21:54.956Z,99.90
2019-05-01T20:24:25.469Z,99.90
2019-05-01T20:26:57.456Z,99.90
2019-05-01T20:29:27.550Z,99.90
2019-05-01T20:31:59.126Z,99.90
2019-05-01T20:34:28.955Z,99.90
2019-05-01T20:36:58.611Z,99.90
2019-05-01T20:39:29.788Z,99.90
2019-05-01T20:41:59.353Z,99.90
2019-05-01T20:44:31.135Z,99.90
2019-05-01T20:47:02.535Z,99.90
2019-05-01T20:49:36.574Z,99.90
2019-05-01T20:52:05.467Z,99.90
2019-05-01T20:54:36.732Z,99.90
2019-05-01T20:57:13.508Z,99.90
2019-05-01T20:59:48.166Z,99.90
2019-05-01T21:02:16.873Z,99.90
2019-05-01T21:04:56.348Z,99.90
2019-05-01T21:07:35.944Z,99.90
2019-05-01T21:10:23.588Z,99.90
2019-05-01T21:12:45.322Z,99.90
2019-05-01T21:15:15.087Z,99.90
2019-05-01T21:17:49.252Z,99.90
2019-05-01T21:20:17.080Z,99.90
2019-05-01T21:22:46.599Z,99.90
2019-05-01T21:25:16.124Z,99.90
2019-05-01T21:27:45.611Z,99.90
2019-05-01T21:30:15.726Z,99.90
2019-05-01T21:32:45.267Z,99.90
2019-05-01T21:35:14.750Z,99.90
2019-05-01T21:37:44.277Z,99.90
2019-05-01T21:40:13.795Z,99.90
2019-05-01T21:42:47.412Z,99.90
2019-05-01T21:45:14.443Z,99.90
2019-05-01T21:47:44.002Z,99.90
2019-05-01T21:50:17.774Z,99.90
2019-05-01T21:52:44.874Z,99.90
2019-05-01T21:55:14.368Z,99.90
2019-05-01T21:57:45.028Z,99.90
2019-05-01T22:00:15.635Z,99.90
2019-05-01T22:02:46.389Z,99.90
2019-05-01T22:05:16.596Z,99.90
2019-05-01T22:07:46.029Z,99.90
2019-05-01T22:10:15.603Z,99.90
2019-05-01T22:12:49.142Z,99.90
2019-05-01T22:15:24.827Z,99.90
2019-05-01T22:18:22.269Z,99.90
2019-05-01T22:23:56.511Z,99.90
2019-05-01T22:26:27.474Z,99.90
2019-05-01T22:28:58.811Z,99.90
2019-05-01T22:31:52.929Z,99.90
2019-05-01T22:34:34.659Z,99.90
2019-05-01T22:37:07.113Z,99.90
2019-05-01T22:39:38.194Z,99.90
2019-05-01T22:42:07.548Z,99.90
2019-05-01T22:47:32.735Z,99.90
2019-05-01T22:50:02.076Z,99.90
2019-05-01T22:52:31.489Z,99.90
2019-05-01T22:55:00.845Z,99.90
2019-05-01T22:57:30.277Z,99.90
2019-05-01T22:59:59.687Z,99.90
2019-05-01T23:02:40.941Z,99.90
2019-05-01T23:05:11.039Z,99.90
2019-05-01T23:07:40.351Z,99.90
2019-05-01T23:10:35.637Z,99.90
2019-05-01T23:13:05.880Z,99.90
2019-05-01T23:15:35.339Z,99.90
2019-05-01T23:18:04.735Z,99.90
2019-05-01T23:20:34.707Z,99.90
2019-05-01T23:23:05.306Z,99.90
2019-05-01T23:25:36.614Z,99.90
2019-05-01T23:28:06.095Z,99.90
2019-05-01T23:30:35.658Z,99.90
2019-05-01T23:33:05.178Z,99.90
2019-05-01T23:35:36.914Z,99.90
2019-05-01T23:38:06.372Z,99.90
2019-05-01T23:40:35.862Z,99.90
2019-05-01T23:43:05.353Z,99.90
2019-05-01T23:45:34.753Z,99.90
2019-05-01T23:48:04.227Z,99.90
2019-05-01T23:50:33.735Z,99.90
2019-05-01T23:53:03.166Z,99.90
2019-05-01T23:55:32.576Z,99.90
2019-05-01T23:58:01.993Z,99.90
